sensor_id;sensor_type;location;lat;lon;timestamp;P1;durP1;ratioP1;P2;durP2;ratioP2
54269;SDS011;40181;51.560;13.000;2023-08-30T00:01:30;1.38;;;0.88;;
54269;SDS011;40181;51.560;13.000;2023-08-30T00:04:00;0.70;;;0.68;;
54269;SDS011;40181;51.560;13.000;2023-08-30T00:06:30;2.33;;;0.90;;
54269;SDS011;40181;51.560;13.000;2023-08-30T00:09:02;2.47;;;0.80;;
54269;SDS011;40181;51.560;13.000;2023-08-30T00:11:31;2.15;;;1.10;;
54269;SDS011;40181;51.560;13.000;2023-08-30T00:14:02;2.28;;;1.00;;
54269;SDS011;40181;51.560;13.000;2023-08-30T00:16:33;2.30;;;1.00;;
54269;SDS011;40181;51.560;13.000;2023-08-30T00:19:03;0.47;;;0.45;;
54269;SDS011;40181;51.560;13.000;2023-08-30T00:21:36;1.35;;;0.68;;
54269;SDS011;40181;51.560;13.000;2023-08-30T00:24:05;2.25;;;0.88;;
54269;SDS011;40181;51.560;13.000;2023-08-30T00:26:35;1.60;;;1.17;;
54269;SDS011;40181;51.560;13.000;2023-08-30T00:29:04;1.13;;;0.85;;
54269;SDS011;40181;51.560;13.000;2023-08-30T00:31:33;2.03;;;1.02;;
54269;SDS011;40181;51.560;13.000;2023-08-30T00:34:02;1.60;;;0.80;;
54269;SDS011;40181;51.560;13.000;2023-08-30T00:36:31;1.10;;;0.80;;
54269;SDS011;40181;51.560;13.000;2023-08-30T00:39:04;0.57;;;0.57;;
54269;SDS011;40181;51.560;13.000;2023-08-30T00:41:33;0.90;;;0.65;;
54269;SDS011;40181;51.560;13.000;2023-08-30T00:44:02;1.13;;;0.93;;
54269;SDS011;40181;51.560;13.000;2023-08-30T00:46:32;1.15;;;0.80;;
54269;SDS011;40181;51.560;13.000;2023-08-30T00:49:02;3.63;;;0.68;;
54269;SDS011;40181;51.560;13.000;2023-08-30T00:51:33;0.73;;;0.63;;
54269;SDS011;40181;51.560;13.000;2023-08-30T00:54:05;1.67;;;1.23;;
54269;SDS011;40181;51.560;13.000;2023-08-30T00:56:35;1.40;;;0.88;;
54269;SDS011;40181;51.560;13.000;2023-08-30T00:59:04;1.45;;;0.82;;
54269;SDS011;40181;51.560;13.000;2023-08-30T01:01:33;2.03;;;1.20;;
54269;SDS011;40181;51.560;13.000;2023-08-30T01:04:04;1.85;;;0.98;;
54269;SDS011;40181;51.560;13.000;2023-08-30T01:06:33;1.67;;;1.05;;
54269;SDS011;40181;51.560;13.000;2023-08-30T01:09:05;1.30;;;0.95;;
54269;SDS011;40181;51.560;13.000;2023-08-30T01:11:36;2.10;;;1.30;;
54269;SDS011;40181;51.560;13.000;2023-08-30T01:14:12;1.55;;;1.17;;
54269;SDS011;40181;51.560;13.000;2023-08-30T01:16:47;2.45;;;1.38;;
54269;SDS011;40181;51.560;13.000;2023-08-30T01:19:21;1.33;;;1.23;;
54269;SDS011;40181;51.560;13.000;2023-08-30T01:22:11;2.30;;;1.50;;
54269;SDS011;40181;51.560;13.000;2023-08-30T01:24:54;4.35;;;1.27;;
54269;SDS011;40181;51.560;13.000;2023-08-30T01:27:36;1.50;;;0.90;;
54269;SDS011;40181;51.560;13.000;2023-08-30T01:30:06;1.52;;;1.23;;
54269;SDS011;40181;51.560;13.000;2023-08-30T01:32:38;1.98;;;1.23;;
54269;SDS011;40181;51.560;13.000;2023-08-30T01:35:07;1.65;;;1.15;;
54269;SDS011;40181;51.560;13.000;2023-08-30T01:37:42;2.90;;;1.10;;
54269;SDS011;40181;51.560;13.000;2023-08-30T01:40:13;0.88;;;0.73;;
54269;SDS011;40181;51.560;13.000;2023-08-30T01:42:47;2.33;;;1.10;;
54269;SDS011;40181;51.560;13.000;2023-08-30T01:45:18;1.00;;;0.80;;
54269;SDS011;40181;51.560;13.000;2023-08-30T01:47:51;1.55;;;0.90;;
54269;SDS011;40181;51.560;13.000;2023-08-30T01:50:21;14.98;;;0.75;;
54269;SDS011;40181;51.560;13.000;2023-08-30T01:52:50;2.20;;;1.30;;
54269;SDS011;40181;51.560;13.000;2023-08-30T01:55:21;0.90;;;0.80;;
54269;SDS011;40181;51.560;13.000;2023-08-30T01:57:54;0.98;;;0.80;;
54269;SDS011;40181;51.560;13.000;2023-08-30T02:00:23;2.20;;;0.98;;
54269;SDS011;40181;51.560;13.000;2023-08-30T02:02:52;1.80;;;0.70;;
54269;SDS011;40181;51.560;13.000;2023-08-30T02:05:21;2.60;;;1.08;;
54269;SDS011;40181;51.560;13.000;2023-08-30T02:07:51;1.13;;;0.82;;
54269;SDS011;40181;51.560;13.000;2023-08-30T02:10:28;0.57;;;0.57;;
54269;SDS011;40181;51.560;13.000;2023-08-30T02:13:06;2.30;;;0.95;;
54269;SDS011;40181;51.560;13.000;2023-08-30T02:15:35;1.20;;;0.95;;
54269;SDS011;40181;51.560;13.000;2023-08-30T02:18:10;1.40;;;0.80;;
54269;SDS011;40181;51.560;13.000;2023-08-30T02:20:39;1.08;;;0.70;;
54269;SDS011;40181;51.560;13.000;2023-08-30T02:23:09;2.22;;;0.93;;
54269;SDS011;40181;51.560;13.000;2023-08-30T02:25:38;1.47;;;0.90;;
54269;SDS011;40181;51.560;13.000;2023-08-30T02:28:10;1.00;;;0.80;;
54269;SDS011;40181;51.560;13.000;2023-08-30T02:30:39;2.45;;;1.08;;
54269;SDS011;40181;51.560;13.000;2023-08-30T02:33:08;1.77;;;1.13;;
54269;SDS011;40181;51.560;13.000;2023-08-30T02:35:37;1.25;;;0.70;;
54269;SDS011;40181;51.560;13.000;2023-08-30T02:38:07;2.08;;;1.05;;
54269;SDS011;40181;51.560;13.000;2023-08-30T02:40:36;1.48;;;0.90;;
54269;SDS011;40181;51.560;13.000;2023-08-30T02:43:05;1.45;;;1.00;;
54269;SDS011;40181;51.560;13.000;2023-08-30T02:45:38;0.85;;;0.57;;
54269;SDS011;40181;51.560;13.000;2023-08-30T02:48:07;1.30;;;0.93;;
54269;SDS011;40181;51.560;13.000;2023-08-30T02:50:36;1.58;;;1.08;;
54269;SDS011;40181;51.560;13.000;2023-08-30T02:53:05;1.45;;;0.98;;
54269;SDS011;40181;51.560;13.000;2023-08-30T02:55:35;1.13;;;0.70;;
54269;SDS011;40181;51.560;13.000;2023-08-30T02:58:05;1.73;;;1.02;;
54269;SDS011;40181;51.560;13.000;2023-08-30T03:00:34;1.30;;;1.00;;
54269;SDS011;40181;51.560;13.000;2023-08-30T03:03:06;1.45;;;0.93;;
54269;SDS011;40181;51.560;13.000;2023-08-30T03:05:35;2.33;;;1.00;;
54269;SDS011;40181;51.560;13.000;2023-08-30T03:08:05;1.52;;;0.75;;
54269;SDS011;40181;51.560;13.000;2023-08-30T03:10:34;2.17;;;1.05;;
54269;SDS011;40181;51.560;13.000;2023-08-30T03:13:03;2.28;;;1.42;;
54269;SDS011;40181;51.560;13.000;2023-08-30T03:15:33;1.33;;;0.90;;
54269;SDS011;40181;51.560;13.000;2023-08-30T03:18:05;1.30;;;0.90;;
54269;SDS011;40181;51.560;13.000;2023-08-30T03:20:34;3.60;;;1.05;;
54269;SDS011;40181;51.560;13.000;2023-08-30T03:23:04;3.15;;;1.25;;
54269;SDS011;40181;51.560;13.000;2023-08-30T03:25:33;2.50;;;1.30;;
54269;SDS011;40181;51.560;13.000;2023-08-30T03:28:02;1.65;;;1.10;;
54269;SDS011;40181;51.560;13.000;2023-08-30T03:30:33;1.45;;;1.00;;
54269;SDS011;40181;51.560;13.000;2023-08-30T03:33:04;1.65;;;0.73;;
54269;SDS011;40181;51.560;13.000;2023-08-30T03:35:34;1.42;;;1.13;;
54269;SDS011;40181;51.560;13.000;2023-08-30T03:38:03;0.93;;;0.65;;
54269;SDS011;40181;51.560;13.000;2023-08-30T03:40:32;1.33;;;0.70;;
54269;SDS011;40181;51.560;13.000;2023-08-30T03:43:04;1.05;;;0.95;;
54269;SDS011;40181;51.560;13.000;2023-08-30T03:45:34;0.88;;;0.85;;
54269;SDS011;40181;51.560;13.000;2023-08-30T03:48:07;1.83;;;1.10;;
54269;SDS011;40181;51.560;13.000;2023-08-30T03:50:36;1.30;;;0.77;;
54269;SDS011;40181;51.560;13.000;2023-08-30T03:53:05;1.90;;;1.23;;
54269;SDS011;40181;51.560;13.000;2023-08-30T03:55:34;1.55;;;1.05;;
54269;SDS011;40181;51.560;13.000;2023-08-30T03:58:03;0.80;;;0.80;;
54269;SDS011;40181;51.560;13.000;2023-08-30T04:00:35;3.08;;;1.30;;
54269;SDS011;40181;51.560;13.000;2023-08-30T04:03:08;1.95;;;1.20;;
54269;SDS011;40181;51.560;13.000;2023-08-30T04:05:38;2.17;;;1.48;;
54269;SDS011;40181;51.560;13.000;2023-08-30T04:08:07;1.25;;;1.13;;
54269;SDS011;40181;51.560;13.000;2023-08-30T04:10:37;2.05;;;1.63;;
54269;SDS011;40181;51.560;13.000;2023-08-30T04:13:12;3.35;;;1.88;;
54269;SDS011;40181;51.560;13.000;2023-08-30T04:15:41;2.05;;;1.13;;
54269;SDS011;40181;51.560;13.000;2023-08-30T04:18:13;3.03;;;1.65;;
54269;SDS011;40181;51.560;13.000;2023-08-30T04:20:43;1.80;;;1.27;;
54269;SDS011;40181;51.560;13.000;2023-08-30T04:23:13;1.90;;;1.25;;
54269;SDS011;40181;51.560;13.000;2023-08-30T04:25:43;2.00;;;1.40;;
54269;SDS011;40181;51.560;13.000;2023-08-30T04:28:13;1.58;;;1.13;;
54269;SDS011;40181;51.560;13.000;2023-08-30T04:30:42;1.60;;;1.20;;
54269;SDS011;40181;51.560;13.000;2023-08-30T04:33:14;1.70;;;1.27;;
54269;SDS011;40181;51.560;13.000;2023-08-30T04:35:43;2.20;;;1.60;;
54269;SDS011;40181;51.560;13.000;2023-08-30T04:38:12;1.83;;;1.45;;
54269;SDS011;40181;51.560;13.000;2023-08-30T04:40:42;1.98;;;1.40;;
54269;SDS011;40181;51.560;13.000;2023-08-30T04:43:11;2.38;;;1.90;;
54269;SDS011;40181;51.560;13.000;2023-08-30T04:45:40;3.85;;;2.20;;
54269;SDS011;40181;51.560;13.000;2023-08-30T04:48:09;1.90;;;1.40;;
54269;SDS011;40181;51.560;13.000;2023-08-30T04:50:41;2.47;;;1.75;;
54269;SDS011;40181;51.560;13.000;2023-08-30T04:53:10;2.50;;;1.92;;
54269;SDS011;40181;51.560;13.000;2023-08-30T04:55:39;4.55;;;2.28;;
54269;SDS011;40181;51.560;13.000;2023-08-30T04:58:08;3.63;;;2.20;;
54269;SDS011;40181;51.560;13.000;2023-08-30T05:00:38;7.35;;;2.50;;
54269;SDS011;40181;51.560;13.000;2023-08-30T05:03:07;3.08;;;1.95;;
54269;SDS011;40181;51.560;13.000;2023-08-30T05:05:36;4.28;;;2.03;;
54269;SDS011;40181;51.560;13.000;2023-08-30T05:08:08;6.25;;;2.38;;
54269;SDS011;40181;51.560;13.000;2023-08-30T05:10:37;2.53;;;1.70;;
54269;SDS011;40181;51.560;13.000;2023-08-30T05:13:08;2.85;;;2.05;;
54269;SDS011;40181;51.560;13.000;2023-08-30T05:15:37;2.20;;;1.30;;
54269;SDS011;40181;51.560;13.000;2023-08-30T05:18:06;2.58;;;2.05;;
54269;SDS011;40181;51.560;13.000;2023-08-30T05:20:36;2.60;;;1.63;;
54269;SDS011;40181;51.560;13.000;2023-08-30T05:23:07;2.60;;;2.03;;
54269;SDS011;40181;51.560;13.000;2023-08-30T05:25:37;3.72;;;2.38;;
54269;SDS011;40181;51.560;13.000;2023-08-30T05:28:06;1.90;;;1.73;;
54269;SDS011;40181;51.560;13.000;2023-08-30T05:30:35;2.40;;;1.33;;
54269;SDS011;40181;51.560;13.000;2023-08-30T05:33:06;1.52;;;1.33;;
54269;SDS011;40181;51.560;13.000;2023-08-30T05:35:36;3.17;;;1.77;;
54269;SDS011;40181;51.560;13.000;2023-08-30T05:38:08;2.55;;;1.63;;
54269;SDS011;40181;51.560;13.000;2023-08-30T05:40:37;2.45;;;2.00;;
54269;SDS011;40181;51.560;13.000;2023-08-30T05:43:09;3.28;;;2.00;;
54269;SDS011;40181;51.560;13.000;2023-08-30T05:45:40;4.47;;;2.15;;
54269;SDS011;40181;51.560;13.000;2023-08-30T05:48:09;3.42;;;2.92;;
54269;SDS011;40181;51.560;13.000;2023-08-30T05:50:38;4.65;;;3.17;;
54269;SDS011;40181;51.560;13.000;2023-08-30T05:53:12;6.32;;;2.58;;
54269;SDS011;40181;51.560;13.000;2023-08-30T05:55:42;3.17;;;2.40;;
54269;SDS011;40181;51.560;13.000;2023-08-30T05:58:11;3.13;;;2.20;;
54269;SDS011;40181;51.560;13.000;2023-08-30T06:00:40;5.00;;;2.92;;
54269;SDS011;40181;51.560;13.000;2023-08-30T06:03:09;3.60;;;2.55;;
54269;SDS011;40181;51.560;13.000;2023-08-30T06:05:39;3.10;;;2.40;;
54269;SDS011;40181;51.560;13.000;2023-08-30T06:08:08;5.25;;;3.38;;
54269;SDS011;40181;51.560;13.000;2023-08-30T06:10:40;4.90;;;2.70;;
54269;SDS011;40181;51.560;13.000;2023-08-30T06:13:09;2.58;;;2.25;;
54269;SDS011;40181;51.560;13.000;2023-08-30T06:15:38;3.83;;;2.60;;
54269;SDS011;40181;51.560;13.000;2023-08-30T06:18:09;5.05;;;3.72;;
54269;SDS011;40181;51.560;13.000;2023-08-30T06:20:39;6.40;;;4.75;;
54269;SDS011;40181;51.560;13.000;2023-08-30T06:23:09;3.83;;;3.47;;
54269;SDS011;40181;51.560;13.000;2023-08-30T06:25:41;6.10;;;4.68;;
54269;SDS011;40181;51.560;13.000;2023-08-30T06:28:10;7.60;;;4.65;;
54269;SDS011;40181;51.560;13.000;2023-08-30T06:30:39;4.28;;;2.92;;
54269;SDS011;40181;51.560;13.000;2023-08-30T06:33:09;2.65;;;2.28;;
54269;SDS011;40181;51.560;13.000;2023-08-30T06:35:38;6.15;;;2.40;;
54269;SDS011;40181;51.560;13.000;2023-08-30T06:38:07;2.63;;;2.20;;
54269;SDS011;40181;51.560;13.000;2023-08-30T06:40:36;4.68;;;2.88;;
54269;SDS011;40181;51.560;13.000;2023-08-30T06:43:14;3.58;;;2.38;;
54269;SDS011;40181;51.560;13.000;2023-08-30T06:45:43;3.00;;;2.25;;
54269;SDS011;40181;51.560;13.000;2023-08-30T06:48:15;5.65;;;2.10;;
54269;SDS011;40181;51.560;13.000;2023-08-30T06:50:44;4.55;;;2.45;;
54269;SDS011;40181;51.560;13.000;2023-08-30T06:53:13;4.93;;;2.70;;
54269;SDS011;40181;51.560;13.000;2023-08-30T06:55:42;3.40;;;2.75;;
54269;SDS011;40181;51.560;13.000;2023-08-30T06:58:14;4.32;;;2.97;;
54269;SDS011;40181;51.560;13.000;2023-08-30T07:00:44;4.00;;;3.25;;
54269;SDS011;40181;51.560;13.000;2023-08-30T07:03:13;2.55;;;2.35;;
54269;SDS011;40181;51.560;13.000;2023-08-30T07:05:42;4.18;;;2.33;;
54269;SDS011;40181;51.560;13.000;2023-08-30T07:08:12;5.45;;;3.05;;
54269;SDS011;40181;51.560;13.000;2023-08-30T07:10:42;5.70;;;2.30;;
54269;SDS011;40181;51.560;13.000;2023-08-30T07:13:14;3.95;;;2.90;;
54269;SDS011;40181;51.560;13.000;2023-08-30T07:15:44;3.40;;;2.47;;
54269;SDS011;40181;51.560;13.000;2023-08-30T07:18:13;4.78;;;3.28;;
54269;SDS011;40181;51.560;13.000;2023-08-30T07:20:42;4.80;;;2.97;;
54269;SDS011;40181;51.560;13.000;2023-08-30T07:23:12;7.40;;;3.30;;
54269;SDS011;40181;51.560;13.000;2023-08-30T07:25:41;4.53;;;3.28;;
54269;SDS011;40181;51.560;13.000;2023-08-30T07:28:13;3.80;;;2.90;;
54269;SDS011;40181;51.560;13.000;2023-08-30T07:30:42;3.05;;;2.67;;
54269;SDS011;40181;51.560;13.000;2023-08-30T07:33:11;3.28;;;2.42;;
54269;SDS011;40181;51.560;13.000;2023-08-30T07:35:41;3.45;;;2.08;;
54269;SDS011;40181;51.560;13.000;2023-08-30T07:38:10;2.58;;;2.08;;
54269;SDS011;40181;51.560;13.000;2023-08-30T07:40:39;4.20;;;1.90;;
54269;SDS011;40181;51.560;13.000;2023-08-30T07:43:08;3.60;;;2.55;;
54269;SDS011;40181;51.560;13.000;2023-08-30T07:45:40;2.17;;;1.55;;
54269;SDS011;40181;51.560;13.000;2023-08-30T07:48:09;4.00;;;2.80;;
54269;SDS011;40181;51.560;13.000;2023-08-30T07:50:38;1.98;;;1.80;;
54269;SDS011;40181;51.560;13.000;2023-08-30T07:53:08;2.63;;;2.00;;
54269;SDS011;40181;51.560;13.000;2023-08-30T07:55:37;2.38;;;1.65;;
54269;SDS011;40181;51.560;13.000;2023-08-30T07:58:06;3.20;;;2.30;;
54269;SDS011;40181;51.560;13.000;2023-08-30T08:00:36;2.42;;;1.70;;
54269;SDS011;40181;51.560;13.000;2023-08-30T08:03:08;3.97;;;2.35;;
54269;SDS011;40181;51.560;13.000;2023-08-30T08:05:37;2.58;;;1.83;;
54269;SDS011;40181;51.560;13.000;2023-08-30T08:08:08;2.80;;;2.08;;
54269;SDS011;40181;51.560;13.000;2023-08-30T08:10:39;1.80;;;1.35;;
54269;SDS011;40181;51.560;13.000;2023-08-30T08:13:09;3.40;;;1.85;;
54269;SDS011;40181;51.560;13.000;2023-08-30T08:15:42;1.30;;;1.07;;
54269;SDS011;40181;51.560;13.000;2023-08-30T08:18:11;6.93;;;2.60;;
54269;SDS011;40181;51.560;13.000;2023-08-30T08:20:41;2.63;;;1.88;;
54269;SDS011;40181;51.560;13.000;2023-08-30T08:23:10;1.98;;;1.52;;
54269;SDS011;40181;51.560;13.000;2023-08-30T08:25:39;2.17;;;1.45;;
54269;SDS011;40181;51.560;13.000;2023-08-30T08:28:09;1.50;;;1.17;;
54269;SDS011;40181;51.560;13.000;2023-08-30T08:30:38;8.55;;;1.67;;
54269;SDS011;40181;51.560;13.000;2023-08-30T08:33:10;2.28;;;1.73;;
54269;SDS011;40181;51.560;13.000;2023-08-30T08:35:39;1.85;;;1.23;;
54269;SDS011;40181;51.560;13.000;2023-08-30T08:38:08;2.33;;;1.83;;
54269;SDS011;40181;51.560;13.000;2023-08-30T08:40:38;2.92;;;1.80;;
54269;SDS011;40181;51.560;13.000;2023-08-30T08:43:07;3.95;;;1.13;;
54269;SDS011;40181;51.560;13.000;2023-08-30T08:45:43;2.08;;;1.40;;
54269;SDS011;40181;51.560;13.000;2023-08-30T08:48:14;2.65;;;1.98;;
54269;SDS011;40181;51.560;13.000;2023-08-30T08:50:43;2.47;;;1.50;;
54269;SDS011;40181;51.560;13.000;2023-08-30T08:53:13;2.47;;;1.37;;
54269;SDS011;40181;51.560;13.000;2023-08-30T08:55:43;4.43;;;1.70;;
54269;SDS011;40181;51.560;13.000;2023-08-30T08:58:14;1.65;;;1.13;;
54269;SDS011;40181;51.560;13.000;2023-08-30T09:00:46;6.13;;;1.98;;
54269;SDS011;40181;51.560;13.000;2023-08-30T09:03:16;2.22;;;1.50;;
54269;SDS011;40181;51.560;13.000;2023-08-30T09:05:47;10.38;;;2.03;;
54269;SDS011;40181;51.560;13.000;2023-08-30T09:08:17;2.00;;;1.48;;
54269;SDS011;40181;51.560;13.000;2023-08-30T09:10:47;5.17;;;1.80;;
54269;SDS011;40181;51.560;13.000;2023-08-30T09:13:17;4.63;;;1.30;;
54269;SDS011;40181;51.560;13.000;2023-08-30T09:15:50;1.17;;;1.00;;
54269;SDS011;40181;51.560;13.000;2023-08-30T09:18:19;2.25;;;1.33;;
54269;SDS011;40181;51.560;13.000;2023-08-30T09:20:52;2.25;;;1.17;;
54269;SDS011;40181;51.560;13.000;2023-08-30T09:23:32;3.22;;;1.73;;
54269;SDS011;40181;51.560;13.000;2023-08-30T09:26:01;2.40;;;1.88;;
54269;SDS011;40181;51.560;13.000;2023-08-30T09:28:41;2.83;;;1.63;;
54269;SDS011;40181;51.560;13.000;2023-08-30T09:31:19;2.05;;;1.60;;
54269;SDS011;40181;51.560;13.000;2023-08-30T09:33:48;2.08;;;1.15;;
54269;SDS011;40181;51.560;13.000;2023-08-30T09:36:18;2.30;;;1.80;;
54269;SDS011;40181;51.560;13.000;2023-08-30T09:38:48;2.40;;;1.88;;
54269;SDS011;40181;51.560;13.000;2023-08-30T09:41:18;2.25;;;1.70;;
54269;SDS011;40181;51.560;13.000;2023-08-30T09:43:47;2.75;;;1.27;;
54269;SDS011;40181;51.560;13.000;2023-08-30T09:46:19;1.77;;;1.33;;
54269;SDS011;40181;51.560;13.000;2023-08-30T09:48:48;3.25;;;2.20;;
54269;SDS011;40181;51.560;13.000;2023-08-30T09:51:18;1.67;;;1.40;;
54269;SDS011;40181;51.560;13.000;2023-08-30T09:53:53;7.45;;;2.25;;
54269;SDS011;40181;51.560;13.000;2023-08-30T09:56:27;4.97;;;1.85;;
54269;SDS011;40181;51.560;13.000;2023-08-30T09:58:57;8.38;;;1.90;;
54269;SDS011;40181;51.560;13.000;2023-08-30T10:01:31;2.17;;;1.52;;
54269;SDS011;40181;51.560;13.000;2023-08-30T10:04:00;1.63;;;1.13;;
54269;SDS011;40181;51.560;13.000;2023-08-30T10:06:32;1.42;;;0.85;;
54269;SDS011;40181;51.560;13.000;2023-08-30T10:09:02;3.53;;;1.97;;
54269;SDS011;40181;51.560;13.000;2023-08-30T10:11:33;2.75;;;1.77;;
54269;SDS011;40181;51.560;13.000;2023-08-30T10:14:04;2.30;;;1.50;;
54269;SDS011;40181;51.560;13.000;2023-08-30T10:16:40;0.80;;;0.68;;
54269;SDS011;40181;51.560;13.000;2023-08-30T10:19:13;2.97;;;0.82;;
54269;SDS011;40181;51.560;13.000;2023-08-30T10:21:45;1.13;;;0.85;;
54269;SDS011;40181;51.560;13.000;2023-08-30T10:24:17;0.65;;;0.60;;
54269;SDS011;40181;51.560;13.000;2023-08-30T10:26:50;4.47;;;1.15;;
54269;SDS011;40181;51.560;13.000;2023-08-30T10:29:19;0.82;;;0.68;;
54269;SDS011;40181;51.560;13.000;2023-08-30T10:31:53;1.27;;;0.80;;
54269;SDS011;40181;51.560;13.000;2023-08-30T10:34:22;0.68;;;0.30;;
54269;SDS011;40181;51.560;13.000;2023-08-30T10:36:56;0.95;;;0.68;;
54269;SDS011;40181;51.560;13.000;2023-08-30T10:39:32;0.80;;;0.70;;
54269;SDS011;40181;51.560;13.000;2023-08-30T10:42:13;0.98;;;0.77;;
54269;SDS011;40181;51.560;13.000;2023-08-30T10:44:47;0.60;;;0.60;;
54269;SDS011;40181;51.560;13.000;2023-08-30T10:47:22;2.00;;;1.45;;
54269;SDS011;40181;51.560;13.000;2023-08-30T10:49:54;1.00;;;0.50;;
54269;SDS011;40181;51.560;13.000;2023-08-30T10:55:04;0.87;;;0.73;;
54269;SDS011;40181;51.560;13.000;2023-08-30T10:57:34;0.70;;;0.47;;
54269;SDS011;40181;51.560;13.000;2023-08-30T11:00:05;1.77;;;0.70;;
54269;SDS011;40181;51.560;13.000;2023-08-30T11:02:43;0.75;;;0.70;;
54269;SDS011;40181;51.560;13.000;2023-08-30T11:05:14;0.73;;;0.55;;
54269;SDS011;40181;51.560;13.000;2023-08-30T11:07:45;3.30;;;1.35;;
54269;SDS011;40181;51.560;13.000;2023-08-30T11:12:45;2.97;;;1.25;;
54269;SDS011;40181;51.560;13.000;2023-08-30T11:15:17;1.33;;;0.85;;
54269;SDS011;40181;51.560;13.000;2023-08-30T11:17:49;1.05;;;0.80;;
54269;SDS011;40181;51.560;13.000;2023-08-30T11:20:18;2.55;;;1.20;;
54269;SDS011;40181;51.560;13.000;2023-08-30T11:22:48;0.70;;;0.70;;
54269;SDS011;40181;51.560;13.000;2023-08-30T11:25:18;1.70;;;1.08;;
54269;SDS011;40181;51.560;13.000;2023-08-30T11:27:48;0.93;;;0.70;;
54269;SDS011;40181;51.560;13.000;2023-08-30T11:30:17;1.92;;;0.88;;
54269;SDS011;40181;51.560;13.000;2023-08-30T11:32:49;1.77;;;0.80;;
54269;SDS011;40181;51.560;13.000;2023-08-30T11:35:20;2.05;;;0.95;;
54269;SDS011;40181;51.560;13.000;2023-08-30T11:40:20;1.25;;;0.73;;
54269;SDS011;40181;51.560;13.000;2023-08-30T11:42:49;0.50;;;0.50;;
54269;SDS011;40181;51.560;13.000;2023-08-30T11:45:18;1.13;;;0.73;;
54269;SDS011;40181;51.560;13.000;2023-08-30T11:47:50;2.03;;;0.88;;
54269;SDS011;40181;51.560;13.000;2023-08-30T11:50:20;0.65;;;0.47;;
54269;SDS011;40181;51.560;13.000;2023-08-30T11:52:49;1.45;;;0.75;;
54269;SDS011;40181;51.560;13.000;2023-08-30T11:55:19;0.50;;;0.50;;
54269;SDS011;40181;51.560;13.000;2023-08-30T11:57:50;1.75;;;1.13;;
54269;SDS011;40181;51.560;13.000;2023-08-30T12:00:19;0.60;;;0.60;;
54269;SDS011;40181;51.560;13.000;2023-08-30T12:02:53;1.52;;;0.98;;
54269;SDS011;40181;51.560;13.000;2023-08-30T12:05:23;0.82;;;0.60;;
54269;SDS011;40181;51.560;13.000;2023-08-30T12:07:52;0.55;;;0.50;;
54269;SDS011;40181;51.560;13.000;2023-08-30T12:10:21;2.67;;;0.73;;
54269;SDS011;40181;51.560;13.000;2023-08-30T12:12:51;0.80;;;0.53;;
54269;SDS011;40181;51.560;13.000;2023-08-30T12:15:22;1.02;;;0.73;;
54269;SDS011;40181;51.560;13.000;2023-08-30T12:17:55;0.90;;;0.63;;
54269;SDS011;40181;51.560;13.000;2023-08-30T12:20:25;2.45;;;0.77;;
54269;SDS011;40181;51.560;13.000;2023-08-30T12:22:54;1.02;;;0.65;;
54269;SDS011;40181;51.560;13.000;2023-08-30T12:25:23;0.55;;;0.50;;
54269;SDS011;40181;51.560;13.000;2023-08-30T12:27:54;0.30;;;0.30;;
54269;SDS011;40181;51.560;13.000;2023-08-30T12:30:23;1.17;;;0.77;;
54269;SDS011;40181;51.560;13.000;2023-08-30T12:33:02;1.88;;;0.70;;
54269;SDS011;40181;51.560;13.000;2023-08-30T12:35:32;0.80;;;0.50;;
54269;SDS011;40181;51.560;13.000;2023-08-30T12:38:01;0.60;;;0.47;;
54269;SDS011;40181;51.560;13.000;2023-08-30T12:40:31;1.35;;;0.85;;
54269;SDS011;40181;51.560;13.000;2023-08-30T12:43:00;0.73;;;0.50;;
54269;SDS011;40181;51.560;13.000;2023-08-30T12:45:29;2.72;;;0.88;;
54269;SDS011;40181;51.560;13.000;2023-08-30T12:48:01;0.85;;;0.50;;
54269;SDS011;40181;51.560;13.000;2023-08-30T12:50:31;0.50;;;0.50;;
54269;SDS011;40181;51.560;13.000;2023-08-30T12:53:01;2.10;;;0.70;;
54269;SDS011;40181;51.560;13.000;2023-08-30T12:55:30;0.80;;;0.60;;
54269;SDS011;40181;51.560;13.000;2023-08-30T12:58:00;1.30;;;0.90;;
54269;SDS011;40181;51.560;13.000;2023-08-30T13:00:30;1.15;;;0.88;;
54269;SDS011;40181;51.560;13.000;2023-08-30T13:03:02;1.27;;;0.70;;
54269;SDS011;40181;51.560;13.000;2023-08-30T13:05:31;1.13;;;0.55;;
54269;SDS011;40181;51.560;13.000;2023-08-30T13:08:01;0.90;;;0.60;;
54269;SDS011;40181;51.560;13.000;2023-08-30T13:10:31;0.55;;;0.40;;
54269;SDS011;40181;51.560;13.000;2023-08-30T13:13:00;0.97;;;0.73;;
54269;SDS011;40181;51.560;13.000;2023-08-30T13:15:30;1.05;;;0.50;;
54269;SDS011;40181;51.560;13.000;2023-08-30T13:18:03;3.00;;;1.33;;
54269;SDS011;40181;51.560;13.000;2023-08-30T13:20:32;1.02;;;0.82;;
54269;SDS011;40181;51.560;13.000;2023-08-30T13:23:05;1.70;;;0.93;;
54269;SDS011;40181;51.560;13.000;2023-08-30T13:25:37;1.35;;;0.73;;
54269;SDS011;40181;51.560;13.000;2023-08-30T13:28:07;0.85;;;0.73;;
54269;SDS011;40181;51.560;13.000;2023-08-30T13:30:36;1.13;;;0.75;;
54269;SDS011;40181;51.560;13.000;2023-08-30T13:33:17;1.23;;;0.77;;
54269;SDS011;40181;51.560;13.000;2023-08-30T13:35:48;1.38;;;0.80;;
54269;SDS011;40181;51.560;13.000;2023-08-30T13:38:18;1.20;;;0.73;;
54269;SDS011;40181;51.560;13.000;2023-08-30T13:40:48;1.27;;;0.70;;
54269;SDS011;40181;51.560;13.000;2023-08-30T13:43:17;1.42;;;0.95;;
54269;SDS011;40181;51.560;13.000;2023-08-30T13:45:46;1.00;;;0.68;;
54269;SDS011;40181;51.560;13.000;2023-08-30T13:48:18;1.52;;;1.05;;
54269;SDS011;40181;51.560;13.000;2023-08-30T13:50:47;1.80;;;0.88;;
54269;SDS011;40181;51.560;13.000;2023-08-30T13:53:17;1.00;;;0.83;;
54269;SDS011;40181;51.560;13.000;2023-08-30T13:55:46;2.38;;;1.20;;
54269;SDS011;40181;51.560;13.000;2023-08-30T13:58:16;1.38;;;0.90;;
54269;SDS011;40181;51.560;13.000;2023-08-30T14:00:45;1.20;;;1.00;;
54269;SDS011;40181;51.560;13.000;2023-08-30T14:03:15;0.80;;;0.73;;
54269;SDS011;40181;51.560;13.000;2023-08-30T14:05:47;1.08;;;0.70;;
54269;SDS011;40181;51.560;13.000;2023-08-30T14:08:17;2.40;;;1.33;;
54269;SDS011;40181;51.560;13.000;2023-08-30T14:10:46;3.97;;;1.45;;
54269;SDS011;40181;51.560;13.000;2023-08-30T14:13:15;1.05;;;0.70;;
54269;SDS011;40181;51.560;13.000;2023-08-30T14:15:45;1.40;;;0.50;;
54269;SDS011;40181;51.560;13.000;2023-08-30T14:18:14;2.25;;;0.77;;
54269;SDS011;40181;51.560;13.000;2023-08-30T14:20:46;3.60;;;0.68;;
54269;SDS011;40181;51.560;13.000;2023-08-30T14:23:15;1.10;;;0.82;;
54269;SDS011;40181;51.560;13.000;2023-08-30T14:25:45;2.55;;;1.48;;
54269;SDS011;40181;51.560;13.000;2023-08-30T14:28:14;39.20;;;4.10;;
54269;SDS011;40181;51.560;13.000;2023-08-30T14:30:43;1.00;;;0.75;;
54269;SDS011;40181;51.560;13.000;2023-08-30T14:33:12;0.88;;;0.60;;
54269;SDS011;40181;51.560;13.000;2023-08-30T14:35:44;0.55;;;0.50;;
54269;SDS011;40181;51.560;13.000;2023-08-30T14:38:13;0.93;;;0.63;;
54269;SDS011;40181;51.560;13.000;2023-08-30T14:40:43;0.73;;;0.60;;
54269;SDS011;40181;51.560;13.000;2023-08-30T14:43:12;0.85;;;0.65;;
54269;SDS011;40181;51.560;13.000;2023-08-30T14:45:41;1.55;;;1.02;;
54269;SDS011;40181;51.560;13.000;2023-08-30T14:48:11;1.27;;;0.70;;
54269;SDS011;40181;51.560;13.000;2023-08-30T14:50:40;0.68;;;0.50;;
54269;SDS011;40181;51.560;13.000;2023-08-30T14:53:12;0.65;;;0.60;;
54269;SDS011;40181;51.560;13.000;2023-08-30T14:55:43;1.17;;;0.55;;
54269;SDS011;40181;51.560;13.000;2023-08-30T14:58:13;0.85;;;0.77;;
54269;SDS011;40181;51.560;13.000;2023-08-30T15:00:42;0.52;;;0.50;;